Time;durP1;ratioP1;P1;durP2;ratioP2;P2;SDS_P1;SDS_P2;PMS_P1;PMS_P2;Temp;Humidity;BMP_temperature;BMP_pressure;BME280_temperature;BME280_humidity;BME280_pressure;Samples;Min_cycle;Max_cycle;Signal;HPM_P1;HPM_P2
2021/10/10 00:00:28;;;;;;;9.05;3.50;;;17.80;67.80;;;;;;5013436;28;20025;-69
2021/10/10 00:02:55;;;;;;;7.65;2.90;;;17.80;68.10;;;;;;5021631;28;20491;-69
2021/10/10 00:05:21;;;;;;;9.00;3.00;;;17.80;68.20;;;;;;5019688;28;20053;-69
2021/10/10 00:07:48;;;;;;;8.77;4.47;;;17.80;69.20;;;;;;5016633;28;20100;-69
2021/10/10 00:10:16;;;;;;;9.18;3.05;;;17.70;68.70;;;;;;5012878;28;20024;-70
2021/10/10 00:12:44;;;;;;;14.57;3.78;;;17.70;68.80;;;;;;5015034;28;20017;-69
2021/10/10 00:15:12;;;;;;;14.52;3.88;;;17.70;68.60;;;;;;5015790;28;20032;-69
2021/10/10 00:17:39;;;;;;;8.48;3.90;;;17.70;68.80;;;;;;5014950;28;20033;-70
2021/10/10 00:20:07;;;;;;;12.20;4.35;;;17.60;68.50;;;;;;5016748;28;20030;-70
2021/10/10 00:22:34;;;;;;;11.13;3.65;;;17.50;68.30;;;;;;5018753;28;20105;-69
2021/10/10 00:25:00;;;;;;;13.20;3.72;;;17.50;68.30;;;;;;5018701;28;20675;-70
2021/10/10 00:27:27;;;;;;;7.72;3.58;;;17.40;69.10;;;;;;5020486;28;20025;-69
2021/10/10 00:29:54;;;;;;;5.38;2.47;;;17.40;68.90;;;;;;5013469;28;20052;-70
2021/10/10 00:32:20;;;;;;;7.68;3.17;;;17.30;69.10;;;;;;5013206;28;20022;-70
2021/10/10 00:34:47;;;;;;;13.68;3.45;;;17.30;69.10;;;;;;5013283;28;20022;-69
2021/10/10 00:37:13;;;;;;;8.90;3.88;;;17.20;69.10;;;;;;5020275;28;20034;-70
2021/10/10 00:39:40;;;;;;;13.45;3.20;;;17.20;69.40;;;;;;5016525;28;20014;-69
2021/10/10 00:42:07;;;;;;;8.45;2.78;;;17.20;69.50;;;;;;5016767;28;20378;-70
2021/10/10 00:44:34;;;;;;;11.40;3.17;;;17.10;69.70;;;;;;5020738;28;20068;-70
2021/10/10 00:47:01;;;;;;;10.00;2.92;;;17.10;69.80;;;;;;5020157;28;20102;-73
2021/10/10 00:49:27;;;;;;;8.93;4.15;;;17.10;70.00;;;;;;5017764;28;20042;-70
2021/10/10 00:51:57;;;;;;;9.48;2.70;;;17.10;70.50;;;;;;5009631;28;20018;-70
2021/10/10 00:54:24;;;;;;;9.65;3.72;;;17.10;70.50;;;;;;5017339;28;20041;-70
2021/10/10 00:56:54;;;;;;;11.23;3.20;;;17.10;70.50;;;;;;5012778;28;20034;-69
2021/10/10 00:59:23;;;;;;;11.80;3.55;;;17.10;70.60;;;;;;5017984;28;20014;-71
2021/10/10 01:01:50;;;;;;;10.60;3.38;;;17.10;70.50;;;;;;5011464;28;20053;-71
2021/10/10 01:04:17;;;;;;;10.90;3.33;;;17.10;70.40;;;;;;5013766;28;20022;-70
2021/10/10 01:06:44;;;;;;;7.65;2.58;;;17.10;70.30;;;;;;5018640;28;20041;-70
2021/10/10 01:09:14;;;;;;;11.57;4.15;;;17.10;70.50;;;;;;5009400;28;20869;-71
2021/10/10 01:11:42;;;;;;;11.50;3.45;;;17.10;70.60;;;;;;5014727;28;20044;-70
2021/10/10 01:14:10;;;;;;;11.65;3.25;;;17.00;70.60;;;;;;5013143;28;20488;-70
2021/10/10 01:16:37;;;;;;;8.60;4.72;;;17.00;70.60;;;;;;5009346;28;20105;-71
2021/10/10 01:19:04;;;;;;;12.20;3.10;;;16.90;70.80;;;;;;5016067;28;20081;-70
2021/10/10 01:21:31;;;;;;;9.20;3.80;;;16.90;71.10;;;;;;5017980;28;20037;-70
2021/10/10 01:23:57;;;;;;;10.30;3.42;;;16.90;71.20;;;;;;5019568;28;20075;-70
2021/10/10 01:26:24;;;;;;;10.40;3.13;;;16.90;71.30;;;;;;5018975;28;20021;-71
2021/10/10 01:28:50;;;;;;;10.13;2.80;;;16.90;71.70;;;;;;5017570;28;20082;-70
2021/10/10 01:31:17;;;;;;;10.07;4.63;;;16.90;71.60;;;;;;5014226;28;20025;-69
2021/10/10 01:33:45;;;;;;;8.27;2.90;;;16.90;71.70;;;;;;5014651;28;20377;-70
2021/10/10 01:36:12;;;;;;;16.75;5.28;;;16.80;71.70;;;;;;5022108;28;20025;-71
2021/10/10 01:38:41;;;;;;;9.95;3.58;;;16.80;71.80;;;;;;5014141;28;20111;-70
2021/10/10 01:41:11;;;;;;;8.32;3.28;;;16.80;71.40;;;;;;5019466;28;20018;-70
2021/10/10 01:43:38;;;;;;;10.52;3.58;;;16.80;71.40;;;;;;5018064;28;20531;-71
2021/10/10 01:46:05;;;;;;;9.77;3.47;;;16.70;71.10;;;;;;5023279;28;20054;-72
2021/10/10 01:48:32;;;;;;;7.25;2.30;;;16.70;71.30;;;;;;5019909;28;20435;-70
2021/10/10 01:50:59;;;;;;;9.15;3.05;;;16.70;71.60;;;;;;5018464;28;20018;-69
2021/10/10 01:53:26;;;;;;;8.75;4.07;;;16.70;71.80;;;;;;5010732;28;20029;-74
2021/10/10 01:55:53;;;;;;;9.27;3.80;;;16.70;71.70;;;;;;5013698;28;20026;-71
2021/10/10 01:58:19;;;;;;;7.07;2.45;;;16.70;71.60;;;;;;5012903;28;20481;-71
2021/10/10 02:00:46;;;;;;;9.20;3.97;;;16.60;71.40;;;;;;5012471;28;20022;-71
2021/10/10 02:03:12;;;;;;;7.93;3.28;;;16.60;71.50;;;;;;5016099;28;20022;-70
2021/10/10 02:05:39;;;;;;;7.70;2.60;;;16.60;71.40;;;;;;5013373;28;20362;-70
2021/10/10 02:08:05;;;;;;;11.45;2.88;;;16.50;71.40;;;;;;5019441;28;20093;-70
2021/10/10 02:10:32;;;;;;;6.30;3.10;;;16.60;71.50;;;;;;5017004;28;20056;-71
2021/10/10 02:12:58;;;;;;;10.57;4.15;;;16.50;71.50;;;;;;5017403;28;20105;-71
2021/10/10 02:15:25;;;;;;;14.18;3.40;;;16.50;72.40;;;;;;5015453;28;20013;-71
2021/10/10 02:17:51;;;;;;;10.88;2.72;;;16.50;71.70;;;;;;5016645;28;20037;-71
2021/10/10 02:20:18;;;;;;;8.68;2.60;;;16.40;71.80;;;;;;5018703;28;20017;-72
2021/10/10 02:22:44;;;;;;;6.78;2.58;;;16.40;71.80;;;;;;5011021;28;20034;-70
2021/10/10 02:25:11;;;;;;;13.77;3.08;;;16.40;71.50;;;;;;5019381;28;20057;-72
2021/10/10 02:27:37;;;;;;;9.40;3.10;;;16.40;71.50;;;;;;5016078;28;20515;-70
2021/10/10 02:30:04;;;;;;;8.32;2.58;;;16.30;71.30;;;;;;5015721;28;20523;-71
2021/10/10 02:32:31;;;;;;;9.70;2.92;;;16.30;71.30;;;;;;5015632;28;20017;-71
2021/10/10 02:34:58;;;;;;;7.80;3.92;;;16.30;71.40;;;;;;5017929;28;20022;-76
2021/10/10 02:37:25;;;;;;;9.68;2.25;;;16.20;71.20;;;;;;5015887;28;20036;-71
2021/10/10 02:39:52;;;;;;;8.02;2.13;;;16.30;71.30;;;;;;5019522;28;20021;-72
2021/10/10 02:42:18;;;;;;;11.73;2.42;;;16.20;71.20;;;;;;5014727;28;20049;-76
2021/10/10 02:44:45;;;;;;;9.15;3.17;;;16.20;71.20;;;;;;5019641;28;20060;-72
2021/10/10 02:47:12;;;;;;;10.13;2.42;;;16.20;71.30;;;;;;5013976;28;20028;-74
2021/10/10 02:49:38;;;;;;;13.27;2.40;;;16.20;71.30;;;;;;5021851;28;20017;-72
2021/10/10 02:52:05;;;;;;;6.15;2.30;;;16.20;71.50;;;;;;5015078;28;20061;-72
2021/10/10 02:54:31;;;;;;;12.05;3.58;;;16.20;71.40;;;;;;5009345;28;20461;-75
2021/10/10 02:56:57;;;;;;;8.23;2.97;;;16.20;71.10;;;;;;5017384;28;20072;-70
2021/10/10 02:59:24;;;;;;;4.82;2.20;;;16.20;71.20;;;;;;5018995;28;20026;-71
2021/10/10 03:01:50;;;;;;;10.00;2.58;;;16.20;71.20;;;;;;5015662;28;20014;-70
2021/10/10 03:04:17;;;;;;;11.82;2.65;;;16.20;71.70;;;;;;5010715;28;20033;-71
2021/10/10 03:06:43;;;;;;;9.13;2.63;;;16.10;70.80;;;;;;5017047;28;20017;-70
2021/10/10 03:09:10;;;;;;;5.22;1.95;;;16.10;70.80;;;;;;5012602;28;20022;-70
2021/10/10 03:11:37;;;;;;;8.05;2.05;;;16.10;70.80;;;;;;5021027;28;20029;-71
2021/10/10 03:14:03;;;;;;;6.55;2.63;;;16.10;70.90;;;;;;5010488;28;20002;-70
2021/10/10 03:16:30;;;;;;;7.38;1.95;;;16.10;71.00;;;;;;5011315;28;20349;-70
2021/10/10 03:18:56;;;;;;;5.20;2.55;;;16.10;71.20;;;;;;5016602;28;20436;-70
2021/10/10 03:21:23;;;;;;;4.97;2.30;;;16.10;71.00;;;;;;5015600;28;20080;-69
2021/10/10 03:23:49;;;;;;;10.90;4.05;;;16.10;71.20;;;;;;5016003;28;20018;-70
2021/10/10 03:26:16;;;;;;;5.30;1.85;;;16.10;71.00;;;;;;5021000;28;20098;-68
2021/10/10 03:28:42;;;;;;;11.50;3.03;;;16.00;71.20;;;;;;5015948;28;20093;-70
2021/10/10 03:31:09;;;;;;;7.43;2.47;;;16.00;71.50;;;;;;5018397;28;20022;-70
2021/10/10 03:33:35;;;;;;;15.32;3.22;;;16.00;71.60;;;;;;5018439;28;20018;-70
2021/10/10 03:36:02;;;;;;;7.57;2.33;;;16.10;71.80;;;;;;5020109;28;20024;-70
2021/10/10 03:38:28;;;;;;;6.00;2.08;;;16.10;71.90;;;;;;5013566;28;20034;-71
2021/10/10 03:40:55;;;;;;;7.45;2.20;;;16.10;71.90;;;;;;5020925;28;20022;-70
2021/10/10 03:43:21;;;;;;;8.95;2.38;;;16.10;71.80;;;;;;5012260;28;20026;-71
2021/10/10 03:45:47;;;;;;;4.50;2.03;;;16.10;71.70;;;;;;5022459;28;20013;-69
2021/10/10 03:48:14;;;;;;;6.07;2.35;;;16.10;71.50;;;;;;5022699;28;20045;-70
2021/10/10 03:50:40;;;;;;;6.85;1.90;;;16.10;71.40;;;;;;5018791;28;20022;-68
2021/10/10 03:53:07;;;;;;;8.43;2.28;;;16.10;71.40;;;;;;5020827;28;20022;-69
2021/10/10 03:55:38;;;;;;;10.15;2.90;;;16.10;71.20;;;;;;5010299;28;20017;-69
2021/10/10 03:58:05;;;;;;;14.23;4.07;;;16.00;71.10;;;;;;5024458;28;20025;-69
2021/10/10 04:00:33;;;;;;;13.32;3.42;;;16.10;71.20;;;;;;5019005;28;20022;-69
2021/10/10 04:03:03;;;;;;;4.05;1.85;;;16.10;71.30;;;;;;5020614;28;20108;-68
2021/10/10 04:08:00;;;;;;;7.32;2.70;;;16.10;70.80;;;;;;5017635;28;20026;-68
2021/10/10 04:10:28;;;;;;;7.70;2.38;;;16.10;70.60;;;;;;5017590;28;20100;-69
2021/10/10 04:12:55;;;;;;;6.05;1.92;;;16.10;70.50;;;;;;5019970;28;20030;-69
2021/10/10 04:15:22;;;;;;;9.30;2.60;;;16.10;70.30;;;;;;5022381;28;20028;-69
2021/10/10 04:17:48;;;;;;;36.00;24.85;;;16.10;70.30;;;;;;5017161;28;20037;-69
2021/10/10 04:20:17;;;;;;;34.38;23.13;;;16.10;70.50;;;;;;5014969;28;20029;-70
2021/10/10 04:22:45;;;;;;;11.52;5.20;;;16.10;70.40;;;;;;5012084;28;20519;-69
2021/10/10 04:25:12;;;;;;;6.10;2.05;;;16.10;70.20;;;;;;5014409;28;20019;-70
2021/10/10 04:27:39;;;;;;;5.53;2.30;;;16.10;70.00;;;;;;5016323;28;20029;-69
2021/10/10 04:30:09;;;;;;;12.88;3.25;;;16.10;70.00;;;;;;5020315;28;20025;-69
2021/10/10 04:32:35;;;;;;;8.02;2.05;;;16.00;70.10;;;;;;5015815;28;20029;-71
2021/10/10 04:35:02;;;;;;;13.98;3.35;;;16.00;70.00;;;;;;5017240;28;20057;-71
2021/10/10 04:37:28;;;;;;;5.50;2.15;;;15.90;69.90;;;;;;5021925;28;20041;-71
2021/10/10 04:39:55;;;;;;;6.82;2.15;;;15.90;69.80;;;;;;5020902;28;20034;-70
2021/10/10 04:42:21;;;;;;;3.90;2.20;;;15.90;69.90;;;;;;5011999;28;20021;-70
2021/10/10 04:44:48;;;;;;;6.93;3.50;;;15.90;70.00;;;;;;5014074;28;20109;-71
2021/10/10 04:47:14;;;;;;;26.58;12.27;;;15.90;70.20;;;;;;5015010;28;20093;-71
2021/10/10 04:49:41;;;;;;;48.95;32.00;;;15.90;70.50;;;;;;5012445;28;20022;-71
2021/10/10 04:52:07;;;;;;;40.63;27.38;;;15.90;70.80;;;;;;5010005;28;20025;-69
2021/10/10 04:54:34;;;;;;;11.52;5.20;;;15.90;70.60;;;;;;5015000;28;20491;-70
2021/10/10 04:57:01;;;;;;;8.07;3.70;;;15.90;70.40;;;;;;5009074;28;20038;-70
2021/10/10 04:59:28;;;;;;;6.47;2.00;;;15.90;70.20;;;;;;5012962;28;20026;-75
2021/10/10 05:01:54;;;;;;;7.88;2.72;;;15.90;70.10;;;;;;5024299;28;20022;-73
2021/10/10 05:04:20;;;;;;;6.38;3.28;;;15.90;70.10;;;;;;5009186;28;20014;-73
2021/10/10 05:06:47;;;;;;;15.05;2.83;;;15.90;69.90;;;;;;5018286;28;20022;-73
2021/10/10 05:09:13;;;;;;;7.93;1.70;;;15.90;69.60;;;;;;5012193;28;20109;-74
2021/10/10 05:11:40;;;;;;;5.15;2.05;;;15.90;69.50;;;;;;5010743;28;20037;-73
2021/10/10 05:14:06;;;;;;;6.10;1.90;;;16.00;69.50;;;;;;5027475;28;20032;-75
2021/10/10 05:16:33;;;;;;;4.22;1.60;;;16.00;69.50;;;;;;5007939;28;20073;-72
2021/10/10 05:19:02;;;;;;;7.88;2.40;;;16.10;69.70;;;;;;5015519;28;20076;-73
2021/10/10 05:21:28;;;;;;;10.27;1.67;;;16.10;69.70;;;;;;5008522;28;20032;-75
2021/10/10 05:23:55;;;;;;;10.75;2.03;;;16.20;70.00;;;;;;5005446;28;20070;-72
2021/10/10 05:26:22;;;;;;;17.85;11.43;;;16.20;69.60;;;;;;5015093;28;20021;-73
2021/10/10 05:28:48;;;;;;;22.88;14.35;;;16.30;69.30;;;;;;5016079;28;20553;-74
2021/10/10 05:31:15;;;;;;;9.18;3.25;;;16.40;69.30;;;;;;5018388;28;20018;-72
2021/10/10 05:33:41;;;;;;;9.57;2.35;;;16.40;69.00;;;;;;5016516;28;20432;-71
2021/10/10 05:36:08;;;;;;;6.25;1.65;;;16.50;69.00;;;;;;5011157;28;20322;-72
2021/10/10 05:38:34;;;;;;;9.88;1.92;;;16.60;68.40;;;;;;5014222;28;20128;-72
2021/10/10 05:41:02;;;;;;;4.75;1.63;;;16.60;67.20;;;;;;5016544;28;20021;-72
2021/10/10 05:43:28;;;;;;;6.20;1.73;;;16.70;66.70;;;;;;5008047;28;20106;-72
2021/10/10 05:45:55;;;;;;;38.83;28.60;;;16.70;66.70;;;;;;5012506;28;20512;-71
2021/10/10 05:48:21;;;;;;;10.20;7.22;;;16.80;65.90;;;;;;5015444;28;20045;-73
2021/10/10 05:50:48;;;;;;;4.18;2.40;;;16.90;65.00;;;;;;5008259;28;20034;-72
2021/10/10 05:53:14;;;;;;;6.68;2.05;;;17.00;63.80;;;;;;5003806;28;20022;-71
2021/10/10 05:55:42;;;;;;;3.25;1.75;;;17.00;63.30;;;;;;5013232;28;20492;-72
2021/10/10 05:58:16;;;;;;;8.95;2.40;;;17.00;63.20;;;;;;5018080;28;20088;-73
2021/10/10 06:00:42;;;;;;;6.53;2.38;;;17.10;62.70;;;;;;5009220;28;20461;-70
2021/10/10 06:03:09;;;;;;;5.07;1.27;;;17.10;62.30;;;;;;5011795;28;20062;-73
2021/10/10 06:05:35;;;;;;;5.10;1.58;;;17.20;62.30;;;;;;5009235;28;20018;-73
2021/10/10 06:08:02;;;;;;;3.85;1.33;;;17.30;62.20;;;;;;5010914;28;20461;-72
2021/10/10 06:10:29;;;;;;;4.07;2.00;;;17.30;62.00;;;;;;5021354;28;20156;-73
2021/10/10 06:12:55;;;;;;;14.02;7.25;;;17.30;61.50;;;;;;5011416;28;20026;-74
2021/10/10 06:15:23;;;;;;;31.67;13.43;;;17.40;62.10;;;;;;5030533;28;20018;-75
2021/10/10 06:17:50;;;;;;;19.13;8.13;;;17.50;63.30;;;;;;5008923;28;20042;-71
2021/10/10 06:20:16;;;;;;;10.80;3.88;;;17.60;62.30;;;;;;5020950;28;20018;-69
2021/10/10 06:22:43;;;;;;;13.23;3.20;;;17.70;62.30;;;;;;5012291;28;20492;-70
2021/10/10 06:25:09;;;;;;;10.05;2.22;;;17.70;62.50;;;;;;5007475;28;20105;-69
2021/10/10 06:27:35;;;;;;;7.75;2.38;;;17.80;62.00;;;;;;5009815;28;20029;-70
2021/10/10 06:30:02;;;;;;;5.82;1.85;;;17.80;61.80;;;;;;5013882;28;20033;-70
2021/10/10 06:32:29;;;;;;;7.35;2.33;;;17.90;61.80;;;;;;5009706;28;20488;-71
2021/10/10 06:34:55;;;;;;;8.52;2.10;;;18.00;61.50;;;;;;5014368;28;20113;-72
2021/10/10 06:37:22;;;;;;;7.30;2.70;;;18.00;60.90;;;;;;5015824;28;20036;-73
2021/10/10 06:39:48;;;;;;;8.02;2.35;;;18.10;60.90;;;;;;5012824;28;20035;-66
2021/10/10 06:42:16;;;;;;;5.90;2.03;;;18.10;60.90;;;;;;5011519;28;20069;-70
2021/10/10 06:44:43;;;;;;;20.63;13.85;;;18.20;60.80;;;;;;5016536;28;20729;-71
2021/10/10 06:47:09;;;;;;;14.43;6.65;;;18.30;60.70;;;;;;5013697;28;20022;-70
2021/10/10 06:49:36;;;;;;;9.88;3.03;;;18.30;60.60;;;;;;5013786;28;20197;-70
2021/10/10 06:52:03;;;;;;;5.22;3.10;;;18.40;60.30;;;;;;5009099;28;20029;-72
2021/10/10 06:54:29;;;;;;;7.20;2.95;;;18.40;59.30;;;;;;5008116;28;20099;-73
2021/10/10 06:56:56;;;;;;;4.82;2.72;;;18.40;59.20;;;;;;5010606;28;20376;-74
2021/10/10 06:59:22;;;;;;;10.45;2.33;;;18.50;59.50;;;;;;5012694;28;20105;-73
2021/10/10 07:01:48;;;;;;;8.73;2.33;;;18.50;59.50;;;;;;5022788;28;20029;-74
2021/10/10 07:04:15;;;;;;;5.35;2.55;;;18.60;59.40;;;;;;5015632;28;20018;-73
2021/10/10 07:06:42;;;;;;;5.22;2.50;;;18.70;59.40;;;;;;5024692;28;20026;-74
2021/10/10 07:09:08;;;;;;;7.78;2.78;;;18.70;59.50;;;;;;5013481;28;20084;-74
2021/10/10 07:11:35;;;;;;;6.20;2.60;;;18.80;59.10;;;;;;5023469;28;20108;-74
2021/10/10 07:14:01;;;;;;;5.00;2.22;;;18.80;58.50;;;;;;5031115;28;20014;-74
2021/10/10 07:16:28;;;;;;;4.47;2.67;;;18.90;58.00;;;;;;5015395;28;20091;-73
2021/10/10 07:18:56;;;;;;;10.18;3.45;;;19.00;57.80;;;;;;5018362;28;20022;-73
2021/10/10 07:26:38;;;;;;;6.13;2.58;;;19.20;57.80;;;;;;5012592;28;20079;-74
2021/10/10 07:29:05;;;;;;;7.63;3.53;;;19.30;57.60;;;;;;5021041;28;20121;-72
2021/10/10 07:31:32;;;;;;;6.65;2.67;;;19.40;57.20;;;;;;5014508;28;20050;-75
2021/10/10 07:33:58;;;;;;;7.05;2.63;;;19.40;56.80;;;;;;5019609;28;20014;-74
2021/10/10 07:36:26;;;;;;;12.32;3.53;;;19.50;56.60;;;;;;5020855;28;20049;-72
2021/10/10 07:38:52;;;;;;;9.70;2.95;;;19.60;57.10;;;;;;5015155;28;20045;-74
2021/10/10 07:41:19;;;;;;;6.10;2.88;;;19.70;55.70;;;;;;5023184;28;20073;-74
2021/10/10 07:43:45;;;;;;;6.22;2.20;;;19.80;54.60;;;;;;5015300;28;20040;-74
2021/10/10 07:46:20;;;;;;;6.03;2.13;;;19.80;53.90;;;;;;5019504;28;20441;-73
2021/10/10 07:48:47;;;;;;;7.22;2.28;;;20.00;54.00;;;;;;5011713;28;20080;-71
2021/10/10 07:51:15;;;;;;;4.07;1.95;;;20.10;53.20;;;;;;5019653;28;20100;-74
2021/10/10 07:53:41;;;;;;;6.35;2.40;;;20.10;53.50;;;;;;5018753;28;20056;-71
2021/10/10 07:56:08;;;;;;;6.05;2.25;;;20.30;54.10;;;;;;5010155;28;20438;-72
2021/10/10 07:58:34;;;;;;;5.15;3.58;;;20.40;53.70;;;;;;5024523;28;20128;-71
2021/10/10 08:01:01;;;;;;;7.63;4.10;;;20.50;52.70;;;;;;5014000;28;20018;-72
2021/10/10 08:03:28;;;;;;;8.20;2.47;;;20.50;52.60;;;;;;5015646;28;20025;-72
2021/10/10 08:05:55;;;;;;;7.50;2.05;;;20.60;52.90;;;;;;5014566;28;20121;-71
2021/10/10 08:08:21;;;;;;;5.10;2.72;;;20.80;51.70;;;;;;5012857;28;20112;-72
2021/10/10 08:10:48;;;;;;;6.38;2.42;;;20.90;50.00;;;;;;5011207;28;20037;-74
2021/10/10 08:13:15;;;;;;;8.18;4.32;;;21.00;50.10;;;;;;5016871;28;20442;-71
2021/10/10 08:15:42;;;;;;;3.30;1.73;;;21.10;48.50;;;;;;5018622;28;20026;-70
2021/10/10 08:18:08;;;;;;;6.25;2.63;;;21.20;47.50;;;;;;5014300;28;20408;-70
2021/10/10 08:20:35;;;;;;;8.35;2.47;;;21.30;49.10;;;;;;5020639;28;20026;-73
2021/10/10 08:23:02;;;;;;;10.38;2.72;;;21.50;47.60;;;;;;5011839;28;20022;-72
2021/10/10 08:25:30;;;;;;;5.55;2.00;;;21.60;46.80;;;;;;5016275;28;20076;-75
2021/10/10 08:27:57;;;;;;;5.45;1.92;;;21.60;45.90;;;;;;5010930;28;20037;-74
2021/10/10 08:30:23;;;;;;;5.65;2.05;;;21.70;46.50;;;;;;5015247;28;20544;-78
2021/10/10 08:32:50;;;;;;;6.50;1.73;;;21.80;46.20;;;;;;5014659;28;20045;-77
2021/10/10 08:35:17;;;;;;;4.35;2.63;;;22.00;45.70;;;;;;5016666;28;20021;-75
2021/10/10 08:37:44;;;;;;;4.63;2.55;;;22.10;45.00;;;;;;5010347;28;20026;-74
2021/10/10 08:40:12;;;;;;;4.15;1.67;;;22.20;44.40;;;;;;5011547;28;20022;-75
2021/10/10 08:42:43;;;;;;;9.23;2.47;;;22.30;44.60;;;;;;5012705;28;20065;-72
2021/10/10 08:45:17;;;;;;;4.18;1.70;;;22.50;44.60;;;;;;5014828;28;20101;-73
2021/10/10 08:47:44;;;;;;;4.03;2.55;;;22.60;44.40;;;;;;5008320;28;20060;-77
2021/10/10 08:50:22;;;;;;;3.65;1.85;;;22.70;43.90;;;;;;5015631;28;20064;-75
2021/10/10 08:52:52;;;;;;;5.63;1.42;;;22.90;43.60;;;;;;5013083;28;20436;-77
2021/10/10 08:55:19;;;;;;;3.47;1.63;;;23.00;42.50;;;;;;5014002;28;20018;-79
2021/10/10 08:57:46;;;;;;;1.80;1.27;;;23.10;42.30;;;;;;5016725;28;20065;-76
2021/10/10 09:00:17;;;;;;;2.28;1.33;;;23.20;42.40;;;;;;5019622;28;20025;-76
2021/10/10 09:02:47;;;;;;;4.20;2.72;;;23.30;42.50;;;;;;5013511;28;20029;-76
2021/10/10 09:05:14;;;;;;;3.35;1.60;;;23.50;41.80;;;;;;5013392;28;20025;-73
2021/10/10 09:07:43;;;;;;;4.22;1.52;;;23.60;41.80;;;;;;5011480;28;20496;-77
2021/10/10 09:10:33;;;;;;;2.85;1.40;;;23.70;40.70;;;;;;5015150;28;20521;-78
2021/10/10 09:13:14;;;;;;;4.47;1.58;;;23.70;39.50;;;;;;5016792;28;20385;-74
2021/10/10 09:15:50;;;;;;;3.08;1.48;;;23.90;39.60;;;;;;5016073;28;20363;-76
2021/10/10 09:18:17;;;;;;;6.90;1.58;;;24.00;39.10;;;;;;5014404;28;20424;-79
2021/10/10 09:20:48;;;;;;;5.13;1.50;;;24.10;38.70;;;;;;5016511;28;20025;-73
2021/10/10 09:23:17;;;;;;;2.10;1.17;;;24.20;38.00;;;;;;5017453;28;20032;-77
2021/10/10 09:26:02;;;;;;;5.38;2.05;;;24.30;37.70;;;;;;5019539;28;20057;-76
2021/10/10 09:28:31;;;;;;;;;;;24.40;38.50;;;;;;5012925;28;20112;-74
2021/10/10 09:31:01;;;;;;;160.40;143.48;;;24.40;38.40;;;;;;5014020;28;19909;-73
2021/10/10 09:33:49;;;;;;;41.72;37.30;;;24.60;39.20;;;;;;5010482;28;20057;-77
2021/10/10 09:36:27;;;;;;;3.90;2.53;;;24.60;40.20;;;;;;5015568;28;20358;-74
2021/10/10 09:39:15;;;;;;;5.32;2.20;;;24.70;38.40;;;;;;5023760;28;20025;-72
2021/10/10 09:41:53;;;;;;;3.55;2.35;;;24.80;38.10;;;;;;5022465;28;20021;-74
2021/10/10 09:44:27;;;;;;;7.55;2.38;;;24.80;37.70;;;;;;5017647;28;20010;-77
2021/10/10 09:46:58;;;;;;;6.82;1.70;;;24.90;37.60;;;;;;5014977;28;20053;-72
2021/10/10 09:49:29;;;;;;;6.20;1.70;;;25.00;38.70;;;;;;5013945;28;20118;-71
2021/10/10 09:52:08;;;;;;;5.43;1.55;;;25.10;38.00;;;;;;5014652;28;20080;-71
2021/10/10 09:54:55;;;;;;;6.45;1.98;;;25.20;37.50;;;;;;5006685;28;20026;-76
2021/10/10 09:57:24;;;;;;;8.52;2.42;;;25.30;37.30;;;;;;5011536;28;20021;-75
2021/10/10 09:59:53;;;;;;;8.00;2.63;;;25.40;37.40;;;;;;5012745;28;20018;-73
2021/10/10 10:02:36;;;;;;;6.63;1.92;;;25.50;37.00;;;;;;5012556;28;20068;-74
2021/10/10 10:05:03;;;;;;;4.00;2.13;;;25.50;35.70;;;;;;5015512;28;20017;-75
2021/10/10 10:07:30;;;;;;;6.47;1.80;;;25.60;35.90;;;;;;5011855;28;20031;-71
2021/10/10 10:09:56;;;;;;;6.40;1.95;;;25.60;36.10;;;;;;5018996;28;20539;-73
2021/10/10 10:12:25;;;;;;;4.75;1.83;;;25.70;35.60;;;;;;5013403;28;20029;-75
2021/10/10 10:14:57;;;;;;;8.73;2.63;;;25.60;36.10;;;;;;5015150;28;20326;-75
2021/10/10 10:17:25;;;;;;;13.30;7.53;;;25.70;36.30;;;;;;5017014;28;20492;-76
2021/10/10 10:19:53;;;;;;;4.57;1.88;;;25.80;35.60;;;;;;5018918;28;20033;-76
2021/10/10 10:22:21;;;;;;;4.63;2.08;;;25.90;35.00;;;;;;5016100;28;20018;-77
2021/10/10 10:24:48;;;;;;;8.98;2.40;;;25.90;34.80;;;;;;5014567;28;20026;-78
2021/10/10 10:27:16;;;;;;;5.47;2.65;;;26.10;34.20;;;;;;5009874;28;20034;-69
2021/10/10 10:29:46;;;;;;;4.97;1.92;;;26.10;34.10;;;;;;5012058;28;20117;-76
2021/10/10 10:32:15;;;;;;;45.83;41.78;;;26.20;34.70;;;;;;5007291;28;20105;-75
2021/10/10 10:34:58;;;;;;;295.40;268.90;;;26.30;34.20;;;;;;5011021;28;20022;-72
2021/10/10 10:37:43;;;;;;;271.65;247.48;;;26.40;34.20;;;;;;5010360;28;20041;-75
2021/10/10 10:40:15;;;;;;;99.10;90.63;;;26.40;33.80;;;;;;5011223;28;20036;-76
2021/10/10 10:42:44;;;;;;;41.38;37.30;;;26.50;34.20;;;;;;5015793;28;20036;-74
2021/10/10 10:45:29;;;;;;;204.25;184.23;;;26.70;34.10;;;;;;5011095;28;20015;-71
2021/10/10 10:47:57;;;;;;;156.90;140.32;;;26.90;33.20;;;;;;5008618;28;20555;-74
2021/10/10 10:50:34;;;;;;;35.70;30.48;;;27.00;32.40;;;;;;5009181;28;20072;-72
2021/10/10 10:53:04;;;;;;;31.70;28.40;;;27.10;33.00;;;;;;5015085;28;20122;-75
2021/10/10 10:55:34;;;;;;;18.15;14.77;;;27.20;32.30;;;;;;5011889;28;20033;-74
2021/10/10 10:58:11;;;;;;;28.88;20.52;;;27.30;32.10;;;;;;5014766;28;20006;-70
2021/10/10 11:00:45;;;;;;;10.07;9.13;;;27.50;30.90;;;;;;5006727;28;20025;-70
2021/10/10 11:03:21;;;;;;;5.72;4.03;;;27.60;30.00;;;;;;5011333;28;20086;-72
2021/10/10 11:05:58;;;;;;;17.63;12.73;;;27.80;31.10;;;;;;5019902;28;20382;-74
2021/10/10 11:08:27;;;;;;;22.70;18.08;;;28.00;31.00;;;;;;5006679;28;20029;-70
2021/10/10 11:11:03;;;;;;;17.77;11.55;;;28.10;30.80;;;;;;5020927;28;20417;-71
2021/10/10 11:13:35;;;;;;;18.52;12.90;;;28.10;31.10;;;;;;5011089;28;20022;-70
2021/10/10 11:16:28;;;;;;;31.45;23.58;;;28.10;32.00;;;;;;5007929;28;20022;-73
2021/10/10 11:18:56;;;;;;;42.80;32.22;;;28.00;31.80;;;;;;5011864;28;20033;-71
2021/10/10 11:21:37;;;;;;;43.42;32.83;;;27.90;31.60;;;;;;5006358;28;20033;-71
2021/10/10 11:24:06;;;;;;;40.30;36.17;;;27.90;31.50;;;;;;5018038;28;20026;-69
2021/10/10 11:26:35;;;;;;;47.65;42.47;;;27.90;31.20;;;;;;5014120;28;20045;-71
2021/10/10 11:29:10;;;;;;;26.55;23.77;;;27.90;30.40;;;;;;5005922;28;20048;-72
2021/10/10 11:31:38;;;;;;;36.17;32.08;;;27.90;30.50;;;;;;5011412;28;20033;-72
2021/10/10 11:34:10;;;;;;;90.00;76.28;;;27.90;30.00;;;;;;5006668;28;20125;-73
2021/10/10 11:36:47;;;;;;;301.88;267.13;;;28.00;29.40;;;;;;5011929;28;20440;-70
2021/10/10 11:39:34;;;;;;;242.15;216.45;;;27.90;28.50;;;;;;5011304;28;20030;-71
2021/10/10 11:42:11;;;;;;;193.60;172.70;;;27.90;27.10;;;;;;5009533;28;20030;-70
2021/10/10 11:44:46;;;;;;;135.40;121.32;;;27.70;26.30;;;;;;5013875;28;20025;-73
2021/10/10 11:47:24;;;;;;;103.28;92.78;;;27.60;25.50;;;;;;5013977;28;20714;-73
2021/10/10 11:49:59;;;;;;;36.83;31.27;;;27.50;24.50;;;;;;5013349;28;20032;-73
2021/10/10 11:52:40;;;;;;;23.38;19.30;;;27.40;24.90;;;;;;5016362;28;20018;-73
2021/10/10 11:57:37;;;;;;;7.95;7.15;;;27.50;24.50;;;;;;5013460;28;20452;-72
2021/10/10 12:00:07;;;;;;;4.40;2.88;;;27.50;24.60;;;;;;5011153;28;20384;-71
2021/10/10 12:02:37;;;;;;;1.83;1.42;;;27.50;25.00;;;;;;5016427;28;20033;-72
2021/10/10 12:05:08;;;;;;;5.40;2.03;;;27.50;25.40;;;;;;5010958;28;20105;-72
2021/10/10 12:07:35;;;;;;;7.05;2.03;;;27.60;25.00;;;;;;5016079;28;20080;-71
2021/10/10 12:10:04;;;;;;;4.03;1.58;;;27.60;24.80;;;;;;5013448;28;20465;-71
2021/10/10 12:12:31;;;;;;;8.55;1.58;;;27.60;24.30;;;;;;5013392;28;20022;-71
2021/10/10 12:14:59;;;;;;;2.00;0.90;;;27.60;24.90;;;;;;5014847;28;20116;-70
2021/10/10 12:17:40;;;;;;;2.03;0.95;;;27.70;25.50;;;;;;5013426;28;20522;-71
2021/10/10 12:20:18;;;;;;;3.15;2.15;;;27.80;25.60;;;;;;5012891;28;20400;-71
2021/10/10 12:22:55;;;;;;;6.03;1.88;;;27.90;26.70;;;;;;5010103;28;20157;-71
2021/10/10 12:25:39;;;;;;;4.25;1.73;;;28.00;26.50;;;;;;5004135;28;20512;-71
2021/10/10 12:28:14;;;;;;;5.95;3.33;;;28.10;27.10;;;;;;5015236;28;20099;-70
2021/10/10 12:30:56;;;;;;;9.60;3.60;;;28.20;27.90;;;;;;5010566;28;20502;-70
2021/10/10 12:33:26;;;;;;;9.15;3.35;;;28.30;27.90;;;;;;5009910;28;20423;-71
2021/10/10 12:35:59;;;;;;;7.03;2.65;;;28.20;28.90;;;;;;5014413;28;20021;-71
2021/10/10 12:38:29;;;;;;;9.93;3.53;;;28.40;29.30;;;;;;5013309;28;20090;-70
2021/10/10 12:40:56;;;;;;;5.78;2.92;;;28.50;30.10;;;;;;5012184;28;20587;-70
2021/10/10 12:43:36;;;;;;;10.40;3.03;;;28.50;30.70;;;;;;5012962;28;20034;-73
2021/10/10 12:46:02;;;;;;;6.88;3.13;;;28.60;31.60;;;;;;5030811;28;20473;-72
2021/10/10 12:48:29;;;;;;;7.47;3.33;;;28.60;31.30;;;;;;5012458;28;20103;-72
2021/10/10 12:51:00;;;;;;;9.18;3.83;;;28.60;31.30;;;;;;5011499;28;20024;-70
2021/10/10 12:53:28;;;;;;;7.13;3.53;;;28.70;31.30;;;;;;5026908;28;20030;-70
2021/10/10 12:56:15;;;;;;;9.50;5.53;;;28.70;31.20;;;;;;5017753;28;20065;-70
2021/10/10 12:58:58;;;;;;;4.93;4.28;;;28.70;31.40;;;;;;5015238;28;20571;-70